-18.23C
небольшая облачность
небольшая облачность
Дата и времяТемператураДавление, мм рт.ст.Влажность, %Осадки
МинимумМаксимум
07.12.2022 08:00-18.27C-18.24C77698переменная облачность
07.12.2022 11:00-17.24C-16.72C77596переменная облачность
07.12.2022 14:00-14.14C-14.14C77492облачно с прояснениями
07.12.2022 17:00-14.99C-14.99C77292облачно с прояснениями
07.12.2022 20:00-15.05C-15.05C77191облачно с прояснениями
07.12.2022 23:00-15.01C-15.01C77089облачно с прояснениями
08.12.2022 02:00-15.66C-15.66C76992облачно с прояснениями
08.12.2022 05:00-15.14C-15.14C76891облачно с прояснениями
08.12.2022 08:00-13.41C-13.41C76893облачно с прояснениями
08.12.2022 11:00-10.43C-10.43C76894пасмурно
08.12.2022 14:00-8.47C-8.47C76890пасмурно
08.12.2022 17:00-9.73C-9.73C76892пасмурно
08.12.2022 20:00-8.98C-8.98C76888пасмурно
08.12.2022 23:00-10.18C-10.18C76886пасмурно
09.12.2022 02:00-10.32C-10.32C76886облачно с прояснениями
09.12.2022 05:00-8.67C-8.67C76880пасмурно
09.12.2022 08:00-9.75C-9.75C76885облачно с прояснениями
09.12.2022 11:00-10.43C-10.43C76885переменная облачность
09.12.2022 14:00-11.16C-11.16C76887небольшая облачность
09.12.2022 17:00-14.86C-14.86C76995переменная облачность
09.12.2022 20:00-13C-13C76994пасмурно
09.12.2022 23:00-12.33C-12.33C77096небольшой снег
10.12.2022 02:00-13.87C-13.87C77195небольшой снег
10.12.2022 05:00-15.67C-15.67C77394пасмурно
10.12.2022 08:00-19.54C-19.54C77496пасмурно
10.12.2022 11:00-20.99C-20.99C77694пасмурно
10.12.2022 14:00-19.3C-19.3C77791пасмурно
10.12.2022 17:00-21.56C-21.56C77793пасмурно
10.12.2022 20:00-19.72C-19.72C77789пасмурно
10.12.2022 23:00-18.75C-18.75C77787пасмурно
11.12.2022 02:00-20.36C-20.36C77790облачно с прояснениями
11.12.2022 05:00-19.66C-19.66C77788пасмурно
11.12.2022 08:00-19.43C-19.43C77787пасмурно
11.12.2022 11:00-17.15C-17.15C77788пасмурно
11.12.2022 14:00-14.42C-14.42C77592пасмурно
11.12.2022 17:00-12C-12C77394небольшой снег
11.12.2022 20:00-8.26C-8.26C76990небольшой снег
11.12.2022 23:00-5.97C-5.97C76687небольшой снег
12.12.2022 02:00-4.61C-4.61C76491снег
12.12.2022 05:00-4.37C-4.37C76286пасмурно
Дата и время наблюдения: 07.12.2022 06:04:32